Terminal Aerodrome Forecast
Issued by NWS Upton, NY

Home | Current Version | Previous Version | Text Only | Print | Product List | Glossary On
Versions: 1 2 3 4 5 6 7 8 9 10 11 12 13 14 15 16 17 18 19 20 21 22 23 24 25 26 27 28 29 30 31 32 33 34 35 36 37 38 39 40 41
000
FTUS41 KOKX 282350
TAFISP
TAF
KISP 282350Z 2900/2924 20008KT P6SM SCT250
     FM290300 18005KT 6SM BR SCT005 OVC150
      TEMPO 2905/2909 2SM BR BKN005
     FM290900 VRB05KT 3SM SHRA BR VCTS SCT005 BKN012CB
      TEMPO 2909/2913 1SM BR BKN005
     FM291400 23010KT 6SM BR SCT015 BKN025
     FM291600 24015G23KT P6SM FEW040 BKN250
     FM292200 30010KT P6SM FEW040 BKN250=

USA.gov is the U.S. government's official web portal to all federal, state and local government web resources and services.